Weather observations for the past three days for
Ogden-Hinckley Airport
Imperial (Metric)
Date Time (mdt) Wind (mph) Vis. (mi.) Weather Sky Cond. Temperature (ºF) Relative Humidity Wind Chill (°F) Heat Index (°F) Pressure Precipitation (in)
Air Dwpt 6 hour altimeter (in) sea level (mb) 1 hr 3 hr 6 hr
Max. Min.
06 01:53 NE 23 G 38 10.00 Partly Cloudy and Breezy SCT060 SCT080 48 34 58% 41 29.9 1010.2 0.07
06 00:53 S 9 10.00 Mostly Cloudy SCT065 BKN080 53.1 41 64% 29.86 1008.1
05 23:53 SE 8 10.00 Overcast BKN070 BKN090 OVC110 55 39 62.1 53.1 55% 29.85 1007.5
05 22:53 SE 3 10.00 Overcast OVC100 55 39.9 57% 29.83 1006.9
05 21:53 E 7 10.00 Overcast BKN070 OVC090 55.9 39 53% 29.83 1006.9
05 20:53 SE 5 10.00 A Few Clouds FEW110 57 37 47% 29.8 1005.7
05 19:53 SW 9 10.00 Fair CLR 57.9 37 46% 29.79 1005.2
05 18:53 S 10 10.00 Fair CLR 60.1 37 42% 29.78 1004.6
05 17:53 SW 6 10.00 Fair CLR 62.1 37.9 62.1 51.1 41% 29.78 1004.7 0.02
05 16:53 Calm 10.00 Fair CLR 59 37.9 46% 29.8 1005.5
05 15:53 SE 8 10.00 Mostly Cloudy BKN060 57.9 39.9 51% 29.82 1006.3
05 14:53 SE 7 10.00 Mostly Cloudy BKN070 55 44.1 67% 29.84 1007.3 0.02 0.02
05 13:53 NE 13 10.00 Light Rain FEW047 OVC060 53.1 42.1 66% 29.86 1008.2
05 12:53 SE 10 10.00 Overcast BKN070 BKN080 OVC110 57 39 51% 29.84 1006.9
05 11:53 S 13 10.00 Overcast OVC065 55.9 37 57 54 49% 29.84 1006.7
05 10:53 S 13 10.00 Overcast OVC055 57 37 47% 29.83 1006.2
05 09:53 S 13 10.00 Overcast OVC060 55.9 36 47% 29.82 1006.0
05 08:53 SE 6 10.00 Overcast BKN060 OVC070 55.9 39.9 55% 29.81 1005.4
05 07:53 S 8 10.00 Overcast SCT060 OVC075 55 39.9 57% 29.8 1004.9
05 06:53 SE 7 10.00 Overcast OVC085 55.9 39.9 55% 29.79 1004.1
05 05:53 S 8 10.00 Overcast OVC080 55 39 61 55 55% 29.77 1003.6
05 04:53 SE 3 10.00 Overcast SCT080 OVC095 57 39 51% 29.77 1003.4
05 03:53 S 12 10.00 Partly Cloudy SCT080 57 39.9 53% 29.77 1003.5
05 02:53 S 10 10.00 Mostly Cloudy BKN080 57 39.9 53% 29.78 1003.7
05 01:53 SE 13 10.00 Mostly Cloudy FEW075 BKN100 57 41 55% 29.79 1004.2
05 00:53 S 14 10.00 Overcast BKN070 OVC085 59 43 56% 29.8 1004.5
04 23:53 W 7 10.00 Overcast OVC110 61 39 73 61 44% 29.79 1003.8
04 22:53 S 14 10.00 Fair CLR 62.1 37.9 41% 29.76 1003.0
04 21:53 S 14 10.00 Fair CLR 64 35.1 34% 29.74 1002.1
04 20:53 SE 6 10.00 Fair CLR 66 34 30% 29.72 1001.8
04 19:53 S 9 10.00 Fair CLR 69.1 33.1 26% 29.7 1001.5
04 18:53 S 13 10.00 Fair CLR 71.1 34 26% 29.71 1001.7
04 17:53 SW 12 10.00 Fair CLR 73 30 75 70 20% 29.72 1002.1
04 16:53 SW 15 G 24 10.00 Fair CLR 73 34 24% 29.72 1001.9
04 15:53 Calm 10.00 Fair CLR 73 26.1 17% 29.73 1001.8
04 14:53 W 8 10.00 Fair CLR 73 28.9 19% 29.75 1002.8
04 13:53 SW 9 10.00 Fair CLR 72 28 19% 29.77 1003.5
04 12:53 SW 5 10.00 Fair CLR 72 34 25% 29.79 1003.9
04 11:53 W 5 10.00 Fair CLR 70 34 70 48.9 27% 29.81 1004.9
04 10:53 S 9 10.00 Fair CLR 69.1 35.1 29% 29.82 1005.2
04 09:53 S 12 10.00 Fair CLR 66.9 35.1 31% 29.82 1005.0
04 08:53 S 8 10.00 Fair CLR 60.1 32 35% 29.83 1005.5
04 07:53 S 12 10.00 Fair CLR 54 28.9 38% 29.83 1006.0
04 06:53 S 7 10.00 Fair CLR 50 28 43% 48 29.83 1006.0
04 05:53 S 9 10.00 Fair CLR 48.9 28 57.9 48.9 44% 45 29.83 1006.0
04 04:53 SE 6 10.00 Fair CLR 53.1 27 37% 29.83 1005.6
04 03:53 S 10 10.00 Fair CLR 57.9 27 31% 29.81 1004.8
04 02:53 S 9 10.00 Fair CLR 54 26.1 34% 29.79 1004.3
04 01:53 S 6 10.00 Fair CLR 55.9 26.1 32% 29.8 1004.6
04 00:53 S 10 10.00 Fair CLR 57 26.1 30% 29.8 1004.5
03 23:53 S 8 10.00 Fair CLR 57 28 75 57 33% 29.8 1004.7
03 22:53 S 8 10.00 Fair CLR 59 28 31% 29.82 1005.5
03 21:53 S 5 10.00 Fair CLR 64 25 23% 29.82 1005.5
03 20:53 N 5 10.00 Fair CLR 66.9 24.1 20% 29.82 1005.4
03 19:53 N 5 10.00 Fair CLR 69.1 24.1 18% 29.83 1005.9
03 18:53 NW 9 10.00 Fair CLR 73 21.9 15% 29.84 1006.5
03 17:53 W 5 10.00 Fair CLR 75 21.9 75.9 70 14% 75 29.85 1006.8
03 16:53 NW 9 10.00 Fair CLR 75.9 19 12% 75 29.87 1007.2
03 15:53 Vrbl 5 10.00 Fair CLR 73.9 15.1 10% 29.9 1008.1
03 14:53 Calm 10.00 Fair CLR 73 21 14% 29.93 1009.2
03 13:53 SW 6 10.00 Fair CLR 73.9 19 12% 29.95 1009.7
03 12:53 SE 3 10.00 Fair CLR 73 19.9 13% 29.97 1010.5
03 11:53 Calm 10.00 Fair CLR 70 27 70 48 20% 29.99 1011.4
03 10:53 SE 3 10.00 Fair CLR 64.9 27 24% 30.01 1012.4
03 09:53 Vrbl 3 10.00 Fair CLR 62.1 30.9 31% 30.02 1012.5
03 08:53 SW 5 10.00 Fair CLR 59 26.1 28% 30.01 1012.3
03 07:53 S 6 10.00 Fair CLR 52 28 40% 30.01 1012.7
03 06:53 S 9 10.00 Fair CLR 48.9 27 43% 45 30 1012.4
03 05:53 S 10 10.00 Fair CLR 48.9 27 55 48.9 43% 45 30 1012.0
03 04:53 S 8 10.00 Fair CLR 48.9 27 43% 46 30.01 1012.7
03 03:53 S 12 10.00 Fair CLR 52 27 38% 30.01 1012.5
03 02:53 S 8 10.00 Fair CLR 51.1 28 41% 30.01 1012.5
Date Time (mdt) Wind (mph) Vis. (mi.) Weather Sky Cond. Air Dwpt Max. Min. Relative Humidity Wind Chill (°F) Heat Index (°F) altimeter (in) sea level (mb) 1 hr 3 hr 6 hr
6 hour
Temperature (ºF) Pressure Precipitation (in)